createdAt,value
2023-03-06T00:00:57.491Z,63.40
2023-03-06T00:03:28.306Z,63.94
2023-03-06T00:05:59.223Z,64.86
2023-03-06T00:08:28.413Z,65.48
2023-03-06T00:11:01.119Z,66.03
2023-03-06T00:13:35.223Z,66.99
2023-03-06T00:16:07.327Z,67.89
2023-03-06T00:18:36.086Z,68.91
2023-03-06T00:21:14.394Z,69.34
2023-03-06T00:23:50.460Z,69.98
2023-03-06T00:26:19.140Z,70.48
2023-03-06T00:28:47.867Z,71.15
2023-03-06T00:31:18.693Z,71.53
2023-03-06T00:33:48.477Z,71.82
2023-03-06T00:36:17.371Z,72.28
2023-03-06T00:38:46.168Z,72.50
2023-03-06T00:41:14.637Z,72.71
2023-03-06T00:43:43.524Z,72.87
2023-03-06T00:46:12.250Z,73.09
2023-03-06T00:48:41.307Z,73.30
2023-03-06T00:51:12.800Z,73.42
2023-03-06T00:53:42.261Z,73.41
2023-03-06T00:56:11.059Z,73.58
2023-03-06T00:58:40.661Z,73.40
2023-03-06T01:01:09.068Z,73.50
2023-03-06T01:03:38.336Z,73.39
2023-03-06T01:06:07.880Z,73.50
2023-03-06T01:08:38.182Z,73.68
2023-03-06T01:11:07.874Z,73.53
2023-03-06T01:13:36.256Z,73.46
2023-03-06T01:16:09.827Z,73.43
2023-03-06T01:18:38.544Z,73.36
2023-03-06T01:21:07.225Z,73.46
2023-03-06T01:23:36.934Z,73.28
2023-03-06T01:26:05.897Z,73.34
2023-03-06T01:28:37.589Z,73.76
2023-03-06T01:31:07.397Z,73.73
2023-03-06T01:33:38.027Z,73.68
2023-03-06T01:36:08.159Z,73.75
2023-03-06T01:38:36.837Z,73.61
2023-03-06T01:41:06.249Z,73.68
2023-03-06T01:43:35.778Z,73.59
2023-03-06T01:46:22.969Z,73.66
2023-03-06T01:49:20.740Z,73.37
2023-03-06T01:52:01.004Z,73.34
2023-03-06T01:54:34.702Z,73.50
2023-03-06T01:57:06.066Z,73.48
2023-03-06T01:59:35.167Z,73.42
2023-03-06T02:02:04.047Z,73.15
2023-03-06T02:04:32.828Z,73.05
2023-03-06T02:07:01.312Z,72.69
2023-03-06T02:09:34.960Z,72.54
2023-03-06T02:12:10.239Z,72.28
2023-03-06T02:14:39.767Z,72.26
2023-03-06T02:17:11.417Z,71.69
2023-03-06T02:20:09.598Z,71.68
2023-03-06T02:22:57.739Z,71.46
2023-03-06T02:25:36.771Z,70.85
2023-03-06T02:28:07.709Z,70.75
2023-03-06T02:30:38.154Z,70.42
2023-03-06T02:33:06.837Z,70.10
2023-03-06T02:35:35.971Z,69.93
2023-03-06T02:38:13.454Z,69.72
2023-03-06T02:40:44.914Z,69.43
2023-03-06T02:43:13.757Z,69.32
2023-03-06T02:45:47.007Z,68.94
2023-03-06T02:48:16.182Z,68.77
2023-03-06T02:50:44.831Z,68.76
2023-03-06T02:53:16.998Z,68.57
2023-03-06T02:55:45.685Z,68.31
2023-03-06T02:58:20.002Z,68.08
2023-03-06T03:00:49.547Z,68.01
2023-03-06T03:03:18.602Z,67.94
2023-03-06T03:05:47.096Z,67.80
2023-03-06T03:08:24.785Z,67.75
2023-03-06T03:11:00.095Z,67.69
2023-03-06T03:13:32.087Z,67.83
2023-03-06T03:16:08.886Z,67.89
2023-03-06T03:18:51.511Z,67.81
2023-03-06T03:21:21.981Z,67.66
2023-03-06T03:23:51.516Z,67.29
2023-03-06T03:26:21.321Z,67.31
2023-03-06T03:29:04.500Z,67.51
2023-03-06T03:31:33.250Z,67.41
2023-03-06T03:34:02.779Z,67.33
2023-03-06T03:36:34.513Z,66.91
2023-03-06T03:39:04.327Z,67.01
2023-03-06T03:41:34.136Z,67.10
2023-03-06T03:44:04.671Z,67.59
2023-03-06T03:46:37.384Z,67.80
2023-03-06T03:49:07.580Z,68.34
2023-03-06T03:51:36.973Z,68.54
2023-03-06T03:54:07.093Z,68.90
2023-03-06T03:56:41.000Z,68.93
2023-03-06T03:59:16.758Z,68.72
2023-03-06T04:01:53.134Z,69.04
2023-03-06T04:04:22.011Z,69.22
2023-03-06T04:06:50.601Z,69.61
2023-03-06T04:09:22.556Z,69.50
2023-03-06T04:11:51.038Z,69.90
2023-03-06T04:15:30.174Z,70.04
2023-03-06T04:17:58.786Z,70.09
2023-03-06T04:20:29.084Z,70.07
2023-03-06T04:22:57.983Z,70.16
2023-03-06T04:25:26.457Z,70.44
2023-03-06T04:27:54.940Z,70.75
2023-03-06T04:30:25.061Z,70.68
2023-03-06T04:32:54.370Z,70.80
2023-03-06T04:35:22.998Z,71.13
2023-03-06T04:37:58.805Z,71.21
2023-03-06T04:40:29.335Z,71.13
2023-03-06T04:42:59.013Z,71.26
2023-03-06T04:45:28.304Z,71.40
2023-03-06T04:48:01.235Z,71.40
2023-03-06T04:50:32.815Z,71.48
2023-03-06T04:53:03.823Z,71.48
2023-03-06T04:55:33.124Z,71.76
2023-03-06T04:58:01.610Z,71.76
2023-03-06T05:00:33.264Z,72.15
2023-03-06T05:03:01.898Z,72.08
2023-03-06T05:05:30.634Z,72.42
2023-03-06T05:07:59.636Z,72.51
2023-03-06T05:10:28.106Z,72.87
2023-03-06T05:12:56.792Z,72.88
2023-03-06T05:15:25.306Z,73.18
2023-03-06T05:17:56.836Z,73.00
2023-03-06T05:20:25.615Z,72.87
2023-03-06T05:22:56.455Z,72.91
2023-03-06T05:25:25.760Z,72.79
2023-03-06T05:27:54.438Z,72.77
2023-03-06T05:30:23.653Z,72.85
2023-03-06T05:32:52.459Z,72.67
2023-03-06T05:35:22.642Z,72.66
2023-03-06T05:37:50.830Z,72.48
2023-03-06T05:40:19.613Z,72.46
2023-03-06T05:42:47.998Z,72.23
2023-03-06T05:45:16.589Z,71.76
2023-03-06T05:47:44.855Z,70.94
2023-03-06T05:50:19.178Z,70.33
2023-03-06T05:52:47.554Z,69.95
2023-03-06T05:55:16.866Z,68.92
2023-03-06T05:57:48.364Z,68.68
2023-03-06T06:00:17.798Z,68.07
2023-03-06T06:02:47.621Z,67.92
2023-03-06T06:05:16.001Z,67.89
2023-03-06T06:07:47.560Z,68.10
2023-03-06T06:10:16.454Z,68.13
2023-03-06T06:12:45.237Z,68.55
2023-03-06T06:15:14.945Z,68.79
2023-03-06T06:17:43.325Z,68.98
2023-03-06T06:20:12.379Z,69.24
2023-03-06T06:22:41.620Z,69.31
2023-03-06T06:25:10.200Z,69.64
2023-03-06T06:27:38.991Z,69.30
2023-03-06T06:30:10.755Z,69.38
2023-03-06T06:32:41.132Z,69.27
2023-03-06T06:35:10.401Z,69.05
2023-03-06T06:37:38.758Z,68.71
2023-03-06T06:40:08.803Z,68.83
2023-03-06T06:42:40.159Z,68.85
2023-03-06T06:45:10.565Z,69.23
2023-03-06T06:47:41.619Z,69.47
2023-03-06T06:50:12.884Z,69.38
2023-03-06T06:52:41.756Z,69.43
2023-03-06T06:55:11.237Z,69.40
2023-03-06T06:57:41.453Z,68.92
2023-03-06T07:00:11.688Z,68.93
2023-03-06T07:02:40.176Z,68.44
2023-03-06T07:05:09.380Z,68.44
2023-03-06T07:07:38.924Z,67.97
2023-03-06T07:10:11.951Z,67.94
2023-03-06T07:12:41.454Z,67.89
2023-03-06T07:15:14.194Z,67.51
2023-03-06T07:17:42.721Z,67.56
2023-03-06T07:20:15.094Z,67.39
2023-03-06T07:22:51.382Z,66.86
2023-03-06T07:25:20.574Z,66.35
2023-03-06T07:27:54.674Z,66.71
2023-03-06T07:30:23.461Z,67.18
2023-03-06T07:32:55.909Z,67.16
2023-03-06T07:35:24.751Z,66.51
2023-03-06T07:37:53.815Z,66.22
2023-03-06T07:40:24.454Z,65.55
2023-03-06T07:43:06.221Z,65.58
2023-03-06T07:45:42.918Z,66.24
2023-03-06T07:48:12.833Z,66.04
2023-03-06T07:50:42.236Z,65.98
2023-03-06T07:53:11.417Z,65.71
2023-03-06T07:55:41.368Z,65.85
2023-03-06T07:58:09.733Z,64.79
2023-03-06T08:00:38.085Z,64.62
2023-03-06T08:03:07.252Z,65.20
2023-03-06T08:05:37.739Z,65.70
2023-03-06T08:08:06.230Z,65.64
2023-03-06T08:10:34.699Z,65.25
2023-03-06T08:13:04.821Z,62.86
2023-03-06T08:15:33.198Z,62.03
2023-03-06T08:18:01.571Z,61.24
2023-03-06T08:20:30.068Z,60.16
2023-03-06T08:22:58.431Z,59.99
2023-03-06T08:25:27.015Z,58.00
2023-03-06T08:27:55.409Z,56.99
2023-03-06T08:30:24.839Z,56.18
2023-03-06T08:32:54.205Z,55.47
2023-03-06T08:35:23.078Z,53.83
2023-03-06T08:37:53.625Z,52.41
2023-03-06T08:40:23.433Z,52.64
2023-03-06T08:42:51.917Z,52.59
2023-03-06T08:45:20.379Z,52.39
2023-03-06T08:47:49.081Z,52.05
2023-03-06T08:50:19.203Z,51.99
2023-03-06T08:52:47.690Z,51.51
2023-03-06T08:55:16.295Z,52.30
2023-03-06T08:57:44.684Z,51.69
2023-03-06T09:00:18.001Z,53.01
2023-03-06T09:02:46.423Z,52.49
2023-03-06T09:05:14.906Z,51.51
2023-03-06T09:07:43.704Z,51.31
2023-03-06T09:10:16.730Z,51.46
2023-03-06T09:12:51.318Z,52.04
2023-03-06T09:15:20.631Z,52.05
2023-03-06T09:17:51.706Z,51.82
2023-03-06T09:20:20.648Z,52.20
2023-03-06T09:22:49.741Z,52.57
2023-03-06T09:25:20.686Z,51.60
2023-03-06T09:27:58.355Z,51.98
2023-03-06T09:30:35.709Z,51.84
2023-03-06T09:33:04.468Z,51.37
2023-03-06T09:35:32.863Z,50.86
2023-03-06T09:38:01.536Z,50.19
2023-03-06T09:40:55.410Z,50.77
2023-03-06T09:43:38.442Z,51.73
2023-03-06T09:46:14.200Z,52.06
2023-03-06T09:48:50.788Z,52.60
2023-03-06T09:51:19.846Z,50.89
2023-03-06T09:54:03.385Z,50.33
2023-03-06T09:56:33.619Z,50.99
2023-03-06T09:59:23.289Z,50.31
2023-03-06T10:02:07.675Z,50.65
2023-03-06T10:04:44.687Z,51.15
2023-03-06T10:07:15.269Z,51.26
2023-03-06T10:09:48.665Z,50.09
2023-03-06T10:12:25.135Z,50.24
2023-03-06T10:15:13.569Z,50.24
2023-03-06T10:17:43.805Z,49.29
2023-03-06T10:20:24.228Z,47.63
2023-03-06T10:23:11.055Z,45.77
2023-03-06T10:25:59.231Z,45.44
2023-03-06T10:28:49.835Z,45.73
2023-03-06T10:31:23.745Z,44.77
2023-03-06T10:33:58.548Z,45.25
2023-03-06T10:36:28.408Z,44.15
2023-03-06T10:38:58.287Z,43.67
2023-03-06T10:41:27.896Z,44.84
2023-03-06T10:43:59.813Z,45.54
2023-03-06T10:46:36.696Z,43.23
2023-03-06T10:49:09.526Z,40.80
2023-03-06T10:51:38.592Z,40.94
2023-03-06T10:54:14.065Z,41.79
2023-03-06T10:56:43.530Z,42.31
2023-03-06T10:59:17.405Z,43.56
2023-03-06T11:01:50.573Z,41.66
2023-03-06T11:04:24.877Z,41.73
2023-03-06T11:07:17.136Z,41.39
2023-03-06T11:10:00.465Z,41.18
2023-03-06T11:12:32.644Z,41.31
2023-03-06T11:15:07.153Z,41.10
2023-03-06T11:17:49.669Z,41.08
2023-03-06T11:20:23.580Z,41.07
2023-03-06T11:23:03.627Z,41.33
2023-03-06T11:25:34.976Z,41.40
2023-03-06T11:28:07.359Z,43.02
2023-03-06T11:30:43.105Z,42.98
2023-03-06T11:33:17.642Z,40.76
2023-03-06T11:35:58.861Z,39.48
2023-03-06T11:38:44.696Z,39.83
2023-03-06T11:41:45.166Z,39.84
2023-03-06T11:44:30.610Z,39.71
2023-03-06T11:47:10.968Z,39.26
2023-03-06T11:49:49.788Z,37.75
2023-03-06T11:52:38.136Z,36.27
2023-03-06T11:55:08.885Z,37.62
2023-03-06T11:58:03.987Z,36.16
2023-03-06T12:00:59.301Z,36.26
2023-03-06T12:03:50.830Z,36.54
2023-03-06T12:06:38.558Z,34.84
2023-03-06T12:09:06.938Z,33.46
2023-03-06T12:11:43.922Z,33.36
2023-03-06T12:14:24.166Z,33.74
2023-03-06T12:17:07.301Z,35.16
2023-03-06T12:19:45.719Z,34.10
2023-03-06T12:22:26.387Z,34.54
2023-03-06T12:25:10.649Z,34.28
2023-03-06T12:27:48.134Z,33.08
2023-03-06T12:30:16.617Z,30.93
2023-03-06T12:32:45.463Z,30.54
2023-03-06T12:35:34.535Z,31.03
2023-03-06T12:38:32.036Z,30.59
2023-03-06T12:41:12.398Z,30.59
2023-03-06T12:43:44.056Z,31.18
2023-03-06T12:46:15.681Z,32.09
2023-03-06T12:48:46.551Z,30.13
2023-03-06T12:51:17.130Z,28.83
2023-03-06T12:53:45.499Z,28.81
2023-03-06T12:56:16.322Z,29.57
2023-03-06T12:58:47.554Z,29.55
2023-03-06T13:01:50.366Z,30.76
2023-03-06T13:04:43.095Z,30.83
2023-03-06T13:07:45.987Z,31.80
2023-03-06T13:10:26.146Z,30.92
2023-03-06T13:12:58.620Z,30.71
2023-03-06T13:15:36.632Z,30.17
2023-03-06T13:18:21.921Z,30.52
2023-03-06T13:20:54.972Z,29.89
2023-03-06T13:23:33.519Z,29.60
2023-03-06T13:26:03.659Z,30.46
2023-03-06T13:28:47.883Z,30.55
2023-03-06T13:31:27.695Z,30.85
2023-03-06T13:33:58.878Z,31.66
2023-03-06T13:36:39.608Z,31.90
2023-03-06T13:39:12.214Z,32.60
2023-03-06T13:41:53.512Z,33.73
2023-03-06T13:44:25.105Z,34.62
2023-03-06T13:47:07.144Z,35.03
2023-03-06T13:49:36.676Z,35.29
2023-03-06T13:52:18.169Z,36.30
2023-03-06T13:55:08.458Z,36.68
2023-03-06T13:57:42.573Z,36.97
2023-03-06T14:00:26.417Z,36.99
2023-03-06T14:03:20.089Z,37.38
2023-03-06T14:05:49.824Z,37.96
2023-03-06T14:08:25.660Z,38.99
2023-03-06T14:11:01.616Z,40.69
2023-03-06T14:13:41.845Z,41.34
2023-03-06T14:16:27.866Z,42.37
2023-03-06T14:18:59.324Z,43.27
2023-03-06T14:21:35.002Z,44.81
2023-03-06T14:24:04.644Z,45.87
2023-03-06T14:26:35.074Z,46.66
2023-03-06T14:29:03.810Z,47.59
2023-03-06T14:31:41.958Z,47.51
2023-03-06T14:34:39.586Z,47.19
2023-03-06T14:37:22.200Z,47.52
2023-03-06T14:39:51.196Z,48.10
2023-03-06T14:42:26.076Z,48.07
2023-03-06T14:45:21.246Z,47.80
2023-03-06T14:47:51.148Z,46.94
2023-03-06T14:50:23.345Z,46.08
2023-03-06T14:53:01.636Z,45.31
2023-03-06T14:55:32.695Z,45.20
2023-03-06T14:58:21.234Z,44.35
2023-03-06T15:00:51.513Z,43.39
2023-03-06T15:03:33.707Z,43.37
2023-03-06T15:06:02.555Z,43.20
2023-03-06T15:08:32.456Z,43.60
2023-03-06T15:11:07.519Z,43.91
2023-03-06T15:13:38.347Z,44.21
2023-03-06T15:16:09.602Z,44.19
2023-03-06T15:18:54.151Z,44.40
2023-03-06T15:21:23.510Z,45.07
2023-03-06T15:23:53.440Z,45.78
2023-03-06T15:26:28.082Z,46.83
2023-03-06T15:29:08.916Z,47.97
2023-03-06T15:31:42.722Z,47.97
2023-03-06T15:34:11.467Z,47.50
2023-03-06T15:36:39.957Z,47.72
2023-03-06T15:39:30.151Z,48.20
2023-03-06T15:42:05.084Z,48.82
2023-03-06T15:44:36.149Z,49.73
2023-03-06T15:47:09.176Z,50.59
2023-03-06T15:49:39.245Z,51.44
2023-03-06T15:52:07.950Z,52.07
2023-03-06T15:54:37.024Z,52.39
2023-03-06T15:57:06.533Z,52.72
2023-03-06T15:59:41.166Z,52.85
2023-03-06T16:02:28.486Z,52.98
2023-03-06T16:04:57.168Z,53.12
2023-03-06T16:07:26.806Z,53.16
2023-03-06T16:09:57.825Z,53.46
2023-03-06T16:12:26.304Z,53.49
2023-03-06T16:14:54.687Z,53.86
2023-03-06T16:17:24.294Z,54.00
2023-03-06T16:19:53.901Z,54.26
2023-03-06T16:22:22.289Z,54.75
2023-03-06T16:24:51.341Z,55.04
2023-03-06T16:27:20.883Z,55.26
2023-03-06T16:29:49.675Z,55.73
2023-03-06T16:33:13.172Z,56.11
2023-03-06T16:35:44.664Z,56.29
2023-03-06T16:38:15.861Z,56.83
2023-03-06T16:40:44.460Z,57.10
2023-03-06T16:43:15.886Z,57.43
2023-03-06T16:45:45.114Z,57.67
2023-03-06T16:48:17.198Z,58.01
2023-03-06T16:50:45.838Z,58.39
2023-03-06T16:53:18.697Z,58.36
2023-03-06T16:55:47.316Z,58.35
2023-03-06T16:58:15.896Z,58.36
2023-03-06T17:00:44.890Z,58.32
2023-03-06T17:03:13.475Z,58.17
2023-03-06T17:05:43.768Z,58.12
2023-03-06T17:08:12.899Z,58.26
2023-03-06T17:10:42.105Z,58.27
2023-03-06T17:13:11.401Z,58.60
2023-03-06T17:15:40.155Z,58.96
2023-03-06T17:18:09.800Z,59.48
2023-03-06T17:20:51.409Z,59.63
2023-03-06T17:23:23.050Z,60.22
2023-03-06T17:25:51.631Z,60.89
2023-03-06T17:28:20.014Z,61.24
2023-03-06T17:30:48.394Z,61.57
2023-03-06T17:33:18.613Z,61.95
2023-03-06T17:35:47.420Z,62.38
2023-03-06T17:38:16.298Z,62.60
2023-03-06T17:40:45.289Z,62.91
2023-03-06T17:43:13.667Z,63.08
2023-03-06T17:45:42.047Z,63.20
2023-03-06T17:48:10.844Z,63.21
2023-03-06T17:50:42.904Z,63.52
2023-03-06T17:53:11.899Z,63.31
2023-03-06T17:55:41.710Z,63.45
2023-03-06T17:58:12.352Z,63.47
2023-03-06T18:00:41.846Z,63.49
2023-03-06T18:03:10.530Z,63.76
2023-03-06T18:05:39.114Z,63.94
2023-03-06T18:08:08.623Z,64.15
2023-03-06T18:10:40.874Z,64.43
2023-03-06T18:13:10.513Z,64.69
2023-03-06T18:15:40.422Z,64.85
2023-03-06T18:18:11.467Z,64.87
2023-03-06T18:20:43.670Z,65.06
2023-03-06T18:23:19.073Z,65.36
2023-03-06T18:25:48.271Z,65.49
2023-03-06T18:28:16.752Z,65.99
2023-03-06T18:30:46.875Z,66.22
2023-03-06T18:33:16.785Z,66.43
2023-03-06T18:35:46.199Z,66.59
2023-03-06T18:38:15.491Z,66.82
2023-03-06T18:40:43.870Z,67.21
2023-03-06T18:43:13.683Z,67.22
2023-03-06T18:45:44.400Z,67.24
2023-03-06T18:48:12.913Z,67.37
2023-03-06T18:50:42.508Z,67.46
2023-03-06T18:53:11.302Z,67.48
2023-03-06T18:55:50.122Z,67.51
2023-03-06T18:58:28.133Z,67.59
2023-03-06T19:00:59.178Z,67.85
2023-03-06T19:03:27.956Z,67.83
2023-03-06T19:05:59.610Z,67.87
2023-03-06T19:08:28.302Z,67.88
2023-03-06T19:11:01.186Z,68.01
2023-03-06T19:13:31.765Z,68.17
2023-03-06T19:16:00.818Z,68.46
2023-03-06T19:18:34.834Z,68.51
2023-03-06T19:21:10.478Z,68.62
2023-03-06T19:23:39.676Z,68.46
2023-03-06T19:26:08.259Z,68.62
2023-03-06T19:28:38.279Z,68.62
2023-03-06T19:31:20.447Z,68.55
2023-03-06T19:33:53.382Z,68.45
2023-03-06T19:36:26.772Z,68.55
2023-03-06T19:38:56.093Z,68.43
2023-03-06T19:41:24.447Z,68.45
2023-03-06T19:43:54.785Z,68.23
2023-03-06T19:46:23.460Z,68.04
2023-03-06T19:48:57.182Z,68.18
2023-03-06T19:51:26.250Z,68.30
2023-03-06T19:53:59.347Z,68.44
2023-03-06T19:56:29.313Z,68.32
2023-03-06T19:58:57.751Z,68.51
2023-03-06T20:01:27.131Z,68.36
2023-03-06T20:03:59.219Z,68.32
2023-03-06T20:06:29.980Z,68.05
2023-03-06T20:09:01.596Z,68.27
2023-03-06T20:11:30.387Z,68.15
2023-03-06T20:13:59.803Z,68.16
2023-03-06T20:16:29.109Z,68.17
2023-03-06T20:19:00.609Z,68.13
2023-03-06T20:21:30.670Z,68.06
2023-03-06T20:23:58.941Z,68.41
2023-03-06T20:26:28.455Z,68.59
2023-03-06T20:28:56.918Z,68.70
2023-03-06T20:31:32.002Z,68.77
2023-03-06T20:34:01.013Z,68.86
2023-03-06T20:36:32.189Z,69.02
2023-03-06T20:39:00.888Z,69.04
2023-03-06T20:41:30.179Z,68.90
2023-03-06T20:44:00.189Z,68.84
2023-03-06T20:46:28.951Z,68.91
2023-03-06T20:49:05.147Z,68.85
2023-03-06T20:51:36.414Z,68.69
2023-03-06T20:54:06.869Z,68.66
2023-03-06T20:56:36.847Z,68.22
2023-03-06T20:59:06.019Z,68.00
2023-03-06T21:01:35.987Z,68.21
2023-03-06T21:04:04.842Z,68.12
2023-03-06T21:06:33.634Z,68.02
2023-03-06T21:09:02.329Z,67.82
2023-03-06T21:11:31.315Z,67.82
2023-03-06T21:14:01.131Z,67.78
2023-03-06T21:16:30.558Z,67.54
2023-03-06T21:19:02.293Z,68.04
2023-03-06T21:21:33.128Z,68.22
2023-03-06T21:24:01.733Z,68.17
2023-03-06T21:26:31.616Z,68.20
2023-03-06T21:29:00.209Z,68.27
2023-03-06T21:31:29.354Z,68.22
2023-03-06T21:33:59.126Z,68.57
2023-03-06T21:36:27.904Z,68.37
2023-03-06T21:38:59.151Z,68.63
2023-03-06T21:41:28.649Z,68.66
2023-03-06T21:44:03.667Z,68.80
2023-03-06T21:46:32.688Z,69.00
2023-03-06T21:49:02.577Z,69.06
2023-03-06T21:51:32.006Z,69.08
2023-03-06T21:54:00.386Z,69.26
2023-03-06T21:56:29.687Z,69.43
2023-03-06T21:58:58.577Z,69.61
2023-03-06T22:01:31.576Z,69.34
2023-03-06T22:04:00.519Z,69.43
2023-03-06T22:06:29.941Z,69.38
2023-03-06T22:08:59.673Z,69.27
2023-03-06T22:11:31.576Z,69.34
2023-03-06T22:14:01.628Z,69.17
2023-03-06T22:16:32.225Z,69.14
2023-03-06T22:19:00.971Z,69.16
2023-03-06T22:21:29.626Z,69.19
2023-03-06T22:24:03.464Z,69.21
2023-03-06T22:26:31.975Z,69.33
2023-03-06T22:29:00.939Z,69.16
2023-03-06T22:31:30.492Z,69.50
2023-03-06T22:34:00.060Z,69.60
2023-03-06T22:36:30.604Z,69.54
2023-03-06T22:39:00.356Z,69.70
2023-03-06T22:41:29.283Z,69.56
2023-03-06T22:43:58.908Z,69.78
2023-03-06T22:46:27.472Z,69.72
2023-03-06T22:48:57.169Z,69.79
2023-03-06T22:51:25.882Z,69.60
2023-03-06T22:53:57.020Z,69.62
2023-03-06T22:56:27.848Z,69.77
2023-03-06T22:58:57.973Z,69.72
2023-03-06T23:01:30.727Z,69.97
2023-03-06T23:04:00.817Z,70.00
2023-03-06T23:06:34.375Z,70.15
2023-03-06T23:09:23.123Z,70.29
2023-03-06T23:12:11.789Z,70.31
2023-03-06T23:15:00.157Z,70.70
2023-03-06T23:17:51.357Z,70.64
2023-03-06T23:20:43.789Z,70.59
2023-03-06T23:23:35.849Z,70.45
2023-03-06T23:26:08.480Z,70.39
2023-03-06T23:28:36.884Z,70.36
2023-03-06T23:31:15.970Z,70.22
2023-03-06T23:33:44.709Z,70.25
2023-03-06T23:36:14.338Z,70.21
2023-03-06T23:38:42.893Z,69.85
2023-03-06T23:41:16.599Z,69.75
2023-03-06T23:43:46.417Z,69.55
2023-03-06T23:46:15.037Z,69.26
2023-03-06T23:48:43.579Z,69.27
2023-03-06T23:51:17.010Z,69.11
2023-03-06T23:53:46.069Z,69.10
2023-03-06T23:56:14.424Z,69.07
2023-03-06T23:58:43.441Z,69.09
